createdAt,value
2023-05-10T00:00:24.557Z,33.28
2023-05-10T00:01:24.596Z,33.31
2023-05-10T00:02:24.686Z,33.33
2023-05-10T00:03:24.688Z,33.29
2023-05-10T00:04:24.580Z,33.35
2023-05-10T00:05:24.617Z,33.29
2023-05-10T00:06:24.591Z,33.37
2023-05-10T00:07:24.624Z,33.33
2023-05-10T00:08:24.645Z,33.29
2023-05-10T00:09:24.618Z,33.27
2023-05-10T00:10:24.664Z,33.31
2023-05-10T00:11:24.694Z,33.32
2023-05-10T00:12:24.695Z,33.36
2023-05-10T00:13:24.833Z,33.37
2023-05-10T00:14:24.706Z,33.36
2023-05-10T00:15:24.682Z,33.37
2023-05-10T00:16:24.804Z,33.53
2023-05-10T00:17:24.759Z,33.37
2023-05-10T00:18:24.724Z,33.49
2023-05-10T00:19:24.739Z,33.49
2023-05-10T00:20:24.762Z,33.38
2023-05-10T00:21:24.763Z,33.43
2023-05-10T00:22:24.792Z,33.43
2023-05-10T00:23:24.808Z,33.45
2023-05-10T00:24:24.894Z,33.44
2023-05-10T00:25:24.831Z,33.45
2023-05-10T00:26:24.878Z,33.45
2023-05-10T00:27:24.906Z,33.44
2023-05-10T00:28:25.007Z,33.51
2023-05-10T00:29:25.015Z,33.54
2023-05-10T00:30:25.104Z,33.47
2023-05-10T00:31:25.177Z,33.64
2023-05-10T00:32:25.233Z,33.58
2023-05-10T00:33:25.243Z,33.57
2023-05-10T00:34:25.330Z,33.53
2023-05-10T00:35:25.392Z,33.56
2023-05-10T00:36:25.414Z,33.53
2023-05-10T00:37:25.468Z,33.54
2023-05-10T00:38:25.440Z,33.52
2023-05-10T00:39:25.483Z,33.53
2023-05-10T00:40:25.436Z,33.54
2023-05-10T00:41:25.446Z,33.58
2023-05-10T00:42:25.465Z,33.60
2023-05-10T00:43:25.484Z,33.60
2023-05-10T00:44:25.483Z,33.60
2023-05-10T00:45:25.477Z,33.68
2023-05-10T00:46:25.625Z,33.72
2023-05-10T00:47:25.552Z,33.66
2023-05-10T00:48:25.547Z,33.66
2023-05-10T00:49:25.530Z,33.70
2023-05-10T00:50:25.525Z,33.65
2023-05-10T00:51:25.568Z,33.65
2023-05-10T00:52:25.587Z,33.68
2023-05-10T00:53:25.576Z,33.72
2023-05-10T00:54:25.571Z,33.81
2023-05-10T00:55:25.613Z,33.88
2023-05-10T00:56:25.662Z,33.75
2023-05-10T00:57:25.708Z,33.83
2023-05-10T00:58:25.633Z,33.81
2023-05-10T00:59:25.657Z,33.75
2023-05-10T01:00:25.644Z,33.74
2023-05-10T01:01:25.698Z,33.79
2023-05-10T01:02:25.908Z,33.83
2023-05-10T01:03:25.869Z,33.80
2023-05-10T01:04:25.789Z,33.83
2023-05-10T01:05:25.829Z,33.94
2023-05-10T01:06:25.833Z,33.86
2023-05-10T01:07:25.845Z,33.96
2023-05-10T01:08:25.862Z,33.87
2023-05-10T01:09:25.866Z,33.81
2023-05-10T01:10:25.872Z,33.83
2023-05-10T01:11:25.886Z,33.82
2023-05-10T01:12:25.984Z,33.84
2023-05-10T01:13:26.053Z,33.81
2023-05-10T01:14:25.917Z,33.81
2023-05-10T01:15:25.954Z,33.84
2023-05-10T01:16:25.999Z,33.87
2023-05-10T01:17:25.988Z,33.86
2023-05-10T01:18:25.986Z,33.85
2023-05-10T01:19:25.992Z,33.91
2023-05-10T01:20:25.999Z,33.89
2023-05-10T01:21:26.059Z,33.88
2023-05-10T01:22:26.106Z,33.88
2023-05-10T01:23:26.160Z,33.90
2023-05-10T01:24:26.222Z,33.91
2023-05-10T01:25:26.280Z,33.92
2023-05-10T01:26:26.337Z,33.97
2023-05-10T01:27:26.404Z,33.97
2023-05-10T01:28:26.452Z,33.98
2023-05-10T01:29:26.504Z,33.88
2023-05-10T01:30:26.964Z,33.87
2023-05-10T01:31:26.637Z,33.95
2023-05-10T01:32:26.712Z,33.96
2023-05-10T01:33:26.763Z,33.99
2023-05-10T01:34:26.791Z,33.92
2023-05-10T01:35:26.844Z,33.96
2023-05-10T01:36:26.935Z,33.95
2023-05-10T01:37:26.967Z,33.96
2023-05-10T01:38:27.013Z,33.96
2023-05-10T01:39:27.078Z,34.03
2023-05-10T01:40:27.152Z,34.06
2023-05-10T01:41:27.196Z,34.00
2023-05-10T01:42:27.575Z,34.00
2023-05-10T01:43:27.291Z,34.04
2023-05-10T01:44:27.379Z,34.05
2023-05-10T01:45:27.444Z,33.97
2023-05-10T01:46:27.501Z,34.11
2023-05-10T01:47:27.526Z,34.03
2023-05-10T01:48:27.482Z,34.07
2023-05-10T01:49:27.510Z,34.05
2023-05-10T01:50:27.532Z,34.07
2023-05-10T01:51:27.528Z,34.02
2023-05-10T01:52:27.541Z,34.10
2023-05-10T01:53:27.537Z,34.13
2023-05-10T01:54:27.538Z,33.99
2023-05-10T01:55:27.570Z,34.13
2023-05-10T01:56:27.572Z,34.14
2023-05-10T01:57:27.584Z,34.09
2023-05-10T01:58:27.588Z,34.08
2023-05-10T01:59:27.583Z,34.05
2023-05-10T02:00:27.685Z,34.13
2023-05-10T02:01:27.639Z,34.11
2023-05-10T02:02:27.670Z,34.16
2023-05-10T02:03:27.660Z,34.16
2023-05-10T02:04:27.681Z,34.14
2023-05-10T02:05:27.652Z,34.14
2023-05-10T02:06:27.704Z,34.13
2023-05-10T02:07:27.683Z,34.19
2023-05-10T02:08:27.716Z,34.16
2023-05-10T02:09:27.732Z,34.16
2023-05-10T02:10:27.780Z,34.21
2023-05-10T02:11:27.782Z,34.20
2023-05-10T02:12:27.836Z,34.20
2023-05-10T02:13:27.859Z,34.24
2023-05-10T02:14:27.832Z,34.19
2023-05-10T02:15:27.885Z,34.17
2023-05-10T02:16:27.830Z,34.19
2023-05-10T02:17:27.862Z,34.22
2023-05-10T02:18:27.886Z,34.22
2023-05-10T02:19:27.899Z,34.23
2023-05-10T02:20:27.894Z,34.23
2023-05-10T02:21:27.930Z,34.28
2023-05-10T02:22:27.946Z,34.27
2023-05-10T02:23:27.955Z,34.21
2023-05-10T02:24:27.932Z,34.25
2023-05-10T02:25:27.949Z,34.32
2023-05-10T02:26:27.972Z,34.24
2023-05-10T02:27:27.977Z,34.30
2023-05-10T02:28:27.990Z,34.31
2023-05-10T02:29:28.043Z,34.28
2023-05-10T02:30:28.011Z,34.28
2023-05-10T02:31:28.085Z,34.33
2023-05-10T02:32:28.126Z,34.30
2023-05-10T02:33:28.047Z,34.31
2023-05-10T02:34:28.070Z,34.35
2023-05-10T02:35:28.089Z,34.31
2023-05-10T02:36:28.113Z,34.30
2023-05-10T02:37:28.103Z,34.38
2023-05-10T02:38:28.138Z,34.38
2023-05-10T02:39:28.144Z,34.39
2023-05-10T02:40:28.877Z,34.34
2023-05-10T02:41:28.136Z,34.43
2023-05-10T02:42:28.200Z,34.47
2023-05-10T02:43:28.218Z,34.48
2023-05-10T02:44:28.218Z,34.44
2023-05-10T02:45:28.290Z,34.37
2023-05-10T02:46:28.422Z,34.35
2023-05-10T02:47:28.439Z,34.41
2023-05-10T02:48:28.483Z,34.35
2023-05-10T02:49:28.502Z,34.39
2023-05-10T02:50:28.571Z,34.37
2023-05-10T02:51:28.618Z,34.33
2023-05-10T02:52:28.698Z,34.45
2023-05-10T02:53:28.757Z,34.49
2023-05-10T02:54:28.781Z,34.47
2023-05-10T02:55:28.867Z,34.44
2023-05-10T02:56:28.918Z,34.46
2023-05-10T02:57:28.979Z,34.41
2023-05-10T02:58:29.012Z,34.42
2023-05-10T02:59:29.059Z,34.51
2023-05-10T03:00:29.208Z,34.46
2023-05-10T03:01:29.271Z,34.40
2023-05-10T03:02:29.298Z,34.47
2023-05-10T03:03:29.300Z,34.48
2023-05-10T03:04:29.409Z,34.53
2023-05-10T03:05:29.437Z,34.49
2023-05-10T03:06:29.465Z,34.49
2023-05-10T03:07:29.534Z,34.46
2023-05-10T03:08:29.580Z,34.44
2023-05-10T03:09:29.629Z,34.47
2023-05-10T03:10:29.680Z,34.47
2023-05-10T03:11:29.760Z,34.50
2023-05-10T03:12:29.796Z,34.53
2023-05-10T03:13:29.861Z,34.47
2023-05-10T03:14:29.831Z,34.50
2023-05-10T03:15:29.831Z,34.48
2023-05-10T03:16:29.966Z,34.53
2023-05-10T03:17:29.887Z,34.54
2023-05-10T03:18:29.875Z,34.49
2023-05-10T03:19:29.943Z,34.51
2023-05-10T03:20:29.982Z,34.54
2023-05-10T03:21:30.018Z,34.52
2023-05-10T03:22:30.016Z,34.53
2023-05-10T03:23:30.015Z,34.54
2023-05-10T03:24:30.061Z,34.49
2023-05-10T03:25:30.052Z,34.56
2023-05-10T03:26:30.067Z,34.52
2023-05-10T03:27:30.075Z,34.57
2023-05-10T03:28:30.114Z,34.54
2023-05-10T03:29:30.125Z,34.51
2023-05-10T03:30:30.158Z,34.56
2023-05-10T03:31:30.165Z,34.58
2023-05-10T03:32:30.210Z,34.51
2023-05-10T03:33:30.206Z,34.53
2023-05-10T03:34:30.195Z,34.51
2023-05-10T03:35:30.297Z,34.57
2023-05-10T03:36:30.307Z,34.57
2023-05-10T03:37:30.290Z,34.59
2023-05-10T03:38:30.735Z,34.61
2023-05-10T03:39:30.332Z,34.55
2023-05-10T03:40:30.327Z,34.60
2023-05-10T03:41:30.370Z,34.64
2023-05-10T03:42:30.427Z,34.65
2023-05-10T03:43:30.486Z,34.63
2023-05-10T03:44:30.551Z,34.64
2023-05-10T03:45:30.571Z,34.62
2023-05-10T03:46:30.654Z,34.60
2023-05-10T03:47:30.741Z,34.61
2023-05-10T03:48:30.644Z,34.71
2023-05-10T03:49:30.657Z,34.66
2023-05-10T03:50:30.639Z,34.68
2023-05-10T03:51:30.646Z,34.70
2023-05-10T03:52:30.668Z,34.69
2023-05-10T03:53:30.708Z,34.75
2023-05-10T03:54:30.684Z,34.67
2023-05-10T03:55:30.688Z,34.66
2023-05-10T03:56:30.728Z,34.74
2023-05-10T03:57:30.717Z,34.66
2023-05-10T03:58:30.711Z,34.69
2023-05-10T03:59:30.791Z,34.74
2023-05-10T04:00:30.872Z,34.72
2023-05-10T04:01:30.880Z,34.79
2023-05-10T04:02:31.160Z,34.76
2023-05-10T04:03:31.063Z,34.79
2023-05-10T04:04:31.064Z,34.83
2023-05-10T04:05:31.099Z,34.77
2023-05-10T04:06:31.215Z,34.73
2023-05-10T04:07:31.256Z,34.76
2023-05-10T04:08:31.273Z,34.77
2023-05-10T04:09:31.348Z,34.72
2023-05-10T04:10:31.403Z,34.75
2023-05-10T04:11:31.484Z,34.71
2023-05-10T04:12:31.513Z,34.68
2023-05-10T04:13:31.603Z,34.76
2023-05-10T04:14:31.630Z,34.73
2023-05-10T04:15:31.719Z,34.73
2023-05-10T04:16:31.782Z,34.77
2023-05-10T04:17:31.860Z,34.80
2023-05-10T04:18:31.860Z,34.76
2023-05-10T04:19:31.946Z,34.74
2023-05-10T04:20:32.007Z,34.75
2023-05-10T04:21:32.066Z,34.79
2023-05-10T04:22:32.085Z,34.82
2023-05-10T04:23:32.189Z,34.77
2023-05-10T04:24:32.238Z,34.78
2023-05-10T04:25:32.300Z,34.80
2023-05-10T04:26:32.384Z,34.80
2023-05-10T04:27:32.391Z,34.81
2023-05-10T04:28:32.440Z,34.85
2023-05-10T04:29:32.525Z,34.86
2023-05-10T04:30:32.583Z,34.86
2023-05-10T04:31:32.541Z,34.87
2023-05-10T04:32:32.615Z,34.80
2023-05-10T04:33:32.579Z,34.88
2023-05-10T04:34:32.590Z,34.82
2023-05-10T04:35:32.621Z,34.85
2023-05-10T04:36:32.644Z,34.83
2023-05-10T04:37:32.700Z,34.86
2023-05-10T04:38:32.744Z,34.83
2023-05-10T04:39:32.802Z,34.88
2023-05-10T04:40:32.868Z,34.87
2023-05-10T04:41:32.911Z,34.92
2023-05-10T04:42:32.971Z,34.86
2023-05-10T04:43:33.036Z,34.83
2023-05-10T04:44:33.108Z,34.86
2023-05-10T04:45:33.141Z,34.87
2023-05-10T04:46:33.216Z,34.87
2023-05-10T04:47:33.295Z,34.88
2023-05-10T04:48:33.321Z,34.83
2023-05-10T04:49:33.368Z,34.87
2023-05-10T04:50:33.385Z,34.91
2023-05-10T04:51:33.391Z,34.92
2023-05-10T04:52:33.440Z,34.90
2023-05-10T04:53:33.448Z,34.89
2023-05-10T04:54:33.435Z,34.94
2023-05-10T04:55:33.435Z,34.90
2023-05-10T04:56:33.494Z,34.90
2023-05-10T04:57:33.460Z,34.89
2023-05-10T04:58:33.460Z,34.92
2023-05-10T04:59:33.476Z,34.91
2023-05-10T05:00:33.493Z,34.91
2023-05-10T05:01:40.501Z,34.98
2023-05-10T05:02:33.602Z,34.94
2023-05-10T05:03:33.583Z,34.94
2023-05-10T05:04:33.521Z,34.96
2023-05-10T05:05:33.487Z,35.02
2023-05-10T05:06:33.459Z,35.09
2023-05-10T05:07:33.462Z,35.04
2023-05-10T05:08:33.468Z,35.00
2023-05-10T05:09:33.445Z,35.07
2023-05-10T05:10:33.459Z,35.10
2023-05-10T05:11:33.455Z,35.04
2023-05-10T05:12:33.406Z,35.04
2023-05-10T05:13:33.460Z,35.11
2023-05-10T05:14:33.428Z,35.10
2023-05-10T05:15:33.420Z,35.06
2023-05-10T05:16:33.408Z,35.07
2023-05-10T05:17:33.468Z,35.06
2023-05-10T05:18:33.406Z,35.04
2023-05-10T05:19:33.380Z,35.03
2023-05-10T05:20:33.369Z,35.11
2023-05-10T05:21:33.359Z,35.10
2023-05-10T05:22:33.359Z,35.05
2023-05-10T05:23:33.410Z,35.11
2023-05-10T05:24:33.431Z,35.16
2023-05-10T05:25:33.359Z,35.11
2023-05-10T05:26:33.358Z,35.07
2023-05-10T05:27:33.324Z,35.11
2023-05-10T05:28:33.367Z,35.11
2023-05-10T05:29:33.309Z,35.07
2023-05-10T05:30:33.295Z,35.10
2023-05-10T05:31:33.382Z,35.15
2023-05-10T05:32:33.326Z,35.14
2023-05-10T05:33:33.275Z,35.15
2023-05-10T05:34:33.292Z,35.08
2023-05-10T05:35:33.306Z,35.48
2023-05-10T05:36:33.267Z,35.45
2023-05-10T05:37:33.286Z,35.50
2023-05-10T05:38:33.445Z,36.29
2023-05-10T05:39:33.272Z,36.70
2023-05-10T05:40:33.258Z,37.42
2023-05-10T05:41:33.229Z,38.03
2023-05-10T05:42:33.226Z,38.54
2023-05-10T05:43:34.576Z,39.41
2023-05-10T05:44:33.231Z,39.11
2023-05-10T05:45:40.255Z,39.54
2023-05-10T05:46:33.224Z,39.35
2023-05-10T05:47:33.213Z,39.22
2023-05-10T05:48:33.494Z,39.30
2023-05-10T05:49:33.197Z,39.15
2023-05-10T05:50:33.184Z,39.58
2023-05-10T05:51:33.191Z,40.71
2023-05-10T05:52:33.168Z,41.39
2023-05-10T05:53:33.177Z,40.37
2023-05-10T05:54:33.469Z,40.34
2023-05-10T05:55:33.135Z,40.24
2023-05-10T05:56:33.136Z,40.08
2023-05-10T05:57:33.137Z,39.90
2023-05-10T05:58:33.124Z,40.02
2023-05-10T05:59:33.463Z,39.54
2023-05-10T06:00:33.101Z,39.36
2023-05-10T06:01:33.113Z,39.27
2023-05-10T06:02:33.200Z,39.20
2023-05-10T06:03:33.112Z,39.20
2023-05-10T06:04:33.173Z,39.20
2023-05-10T06:05:33.082Z,39.10
2023-05-10T06:06:33.087Z,39.19
2023-05-10T06:07:33.104Z,38.94
2023-05-10T06:08:33.054Z,38.91
2023-05-10T06:09:33.485Z,39.13
2023-05-10T06:10:33.041Z,38.96
2023-05-10T06:11:33.023Z,38.82
2023-05-10T06:12:33.026Z,38.85
2023-05-10T06:13:33.273Z,38.64
2023-05-10T06:14:33.021Z,38.70
2023-05-10T06:15:33.022Z,38.56
2023-05-10T06:16:33.102Z,38.43
2023-05-10T06:17:33.102Z,38.59
2023-05-10T06:18:33.109Z,38.59
2023-05-10T06:19:33.138Z,38.42
2023-05-10T06:20:33.164Z,38.33
2023-05-10T06:21:33.175Z,38.22
2023-05-10T06:22:33.197Z,38.20
2023-05-10T06:23:33.221Z,38.21
2023-05-10T06:24:33.490Z,38.29
2023-05-10T06:25:33.217Z,38.37
2023-05-10T06:26:33.239Z,38.31
2023-05-10T06:27:33.294Z,38.22
2023-05-10T06:28:33.311Z,38.26
2023-05-10T06:29:33.351Z,38.36
2023-05-10T06:30:33.376Z,38.28
2023-05-10T06:31:33.419Z,38.16
2023-05-10T06:32:33.498Z,38.26
2023-05-10T06:33:33.447Z,38.27
2023-05-10T06:34:33.491Z,38.25
2023-05-10T06:35:33.503Z,38.25
2023-05-10T06:36:33.578Z,38.32
2023-05-10T06:37:33.630Z,38.32
2023-05-10T06:38:33.636Z,38.22
2023-05-10T06:39:33.710Z,38.29
2023-05-10T06:40:33.707Z,38.20
2023-05-10T06:41:33.704Z,38.22
2023-05-10T06:42:33.716Z,38.30
2023-05-10T06:43:33.720Z,38.20
2023-05-10T06:44:33.694Z,38.14
2023-05-10T06:45:33.726Z,38.23
2023-05-10T06:46:33.825Z,38.27
2023-05-10T06:47:34.757Z,38.31
2023-05-10T06:48:34.087Z,38.30
2023-05-10T06:49:34.124Z,38.30
2023-05-10T06:50:34.152Z,38.34
2023-05-10T06:51:34.172Z,38.33
2023-05-10T06:52:34.183Z,38.30
2023-05-10T06:53:34.196Z,38.31
2023-05-10T06:54:34.173Z,38.27
2023-05-10T06:55:34.184Z,38.30
2023-05-10T06:56:34.141Z,38.26
2023-05-10T06:57:34.177Z,38.28
2023-05-10T06:58:34.154Z,38.27
2023-05-10T06:59:34.304Z,38.30
2023-05-10T07:00:34.204Z,38.17
2023-05-10T07:01:34.180Z,38.21
2023-05-10T07:02:34.278Z,38.24
2023-05-10T07:03:34.168Z,38.26
2023-05-10T07:04:34.190Z,38.16
2023-05-10T07:05:34.218Z,38.09
2023-05-10T07:06:34.177Z,38.12
2023-05-10T07:07:34.226Z,38.10
2023-05-10T07:08:34.296Z,38.11
2023-05-10T07:09:34.302Z,38.03
2023-05-10T07:10:34.419Z,38.04
2023-05-10T07:11:34.418Z,38.01
2023-05-10T07:12:34.508Z,38.02
2023-05-10T07:13:34.536Z,38.04
2023-05-10T07:14:34.610Z,38.07
2023-05-10T07:15:34.622Z,38.09
2023-05-10T07:16:34.755Z,38.01
2023-05-10T07:17:34.812Z,38.05
2023-05-10T07:18:34.784Z,38.07
2023-05-10T07:19:34.815Z,38.17
2023-05-10T07:20:35.032Z,38.15
2023-05-10T07:21:34.908Z,38.11
2023-05-10T07:22:34.944Z,38.10
2023-05-10T07:23:34.974Z,38.12
2023-05-10T07:24:35.102Z,38.00
2023-05-10T07:25:35.055Z,37.99
2023-05-10T07:26:35.108Z,37.98
2023-05-10T07:27:35.157Z,37.94
2023-05-10T07:28:35.259Z,37.91
2023-05-10T07:29:35.255Z,37.95
2023-05-10T07:30:35.349Z,37.94
2023-05-10T07:31:35.387Z,37.98
2023-05-10T07:32:35.507Z,37.96
2023-05-10T07:33:35.498Z,37.99
2023-05-10T07:34:35.499Z,37.94
2023-05-10T07:35:35.577Z,37.88
2023-05-10T07:36:35.574Z,37.89
2023-05-10T07:37:35.550Z,37.89
2023-05-10T07:38:35.566Z,37.89
2023-05-10T07:39:35.563Z,37.93
2023-05-10T07:40:35.583Z,37.94
2023-05-10T07:41:35.927Z,37.92
2023-05-10T07:42:35.559Z,37.95
2023-05-10T07:43:35.552Z,38.17
2023-05-10T07:44:35.571Z,38.38
2023-05-10T07:45:35.572Z,38.37
2023-05-10T07:46:35.543Z,38.27
2023-05-10T07:47:35.603Z,38.28
2023-05-10T07:48:35.595Z,38.29
2023-05-10T07:49:35.544Z,38.24
2023-05-10T07:50:36.021Z,38.17
2023-05-10T07:51:35.577Z,38.10
2023-05-10T07:52:35.618Z,38.03
2023-05-10T07:53:35.628Z,38.05
2023-05-10T07:54:35.678Z,37.96
2023-05-10T07:55:35.747Z,37.92
2023-05-10T07:56:35.752Z,37.91
2023-05-10T07:57:35.791Z,37.99
2023-05-10T07:58:35.865Z,37.98
2023-05-10T07:59:35.880Z,37.82
2023-05-10T08:00:36.008Z,37.73
2023-05-10T08:01:35.974Z,37.61
2023-05-10T08:02:36.049Z,37.42
2023-05-10T08:03:36.156Z,37.57
2023-05-10T08:04:36.172Z,37.54
2023-05-10T08:05:36.088Z,37.45
2023-05-10T08:06:36.157Z,37.32
2023-05-10T08:07:36.216Z,37.25
2023-05-10T08:08:36.276Z,37.24
2023-05-10T08:09:36.302Z,37.20
2023-05-10T08:10:36.364Z,37.20
2023-05-10T08:11:36.399Z,37.16
2023-05-10T08:12:36.428Z,37.18
2023-05-10T08:13:36.388Z,37.31
2023-05-10T08:14:36.403Z,37.35
2023-05-10T08:15:36.567Z,37.24
2023-05-10T08:16:36.830Z,37.28
2023-05-10T08:17:36.455Z,37.33
2023-05-10T08:18:36.498Z,37.42
2023-05-10T08:19:36.478Z,37.64
2023-05-10T08:20:36.505Z,37.51
2023-05-10T08:21:36.546Z,37.42
2023-05-10T08:22:36.549Z,37.57
2023-05-10T08:23:36.514Z,37.60
2023-05-10T08:24:36.565Z,37.62
2023-05-10T08:25:36.537Z,37.65
2023-05-10T08:26:36.650Z,37.71
2023-05-10T08:27:36.571Z,37.88
2023-05-10T08:28:36.581Z,38.21
2023-05-10T08:29:48.850Z,39.01
2023-05-10T08:30:38.044Z,40.11
2023-05-10T08:31:36.620Z,40.99
2023-05-10T08:32:36.661Z,41.02
2023-05-10T08:33:36.578Z,40.61
2023-05-10T08:34:36.614Z,41.16
2023-05-10T08:35:37.056Z,41.71
2023-05-10T08:36:36.538Z,42.02
2023-05-10T08:37:36.547Z,41.60
2023-05-10T08:38:36.562Z,41.38
2023-05-10T08:39:36.512Z,41.19
2023-05-10T08:40:36.523Z,40.95
2023-05-10T08:41:36.523Z,41.13
2023-05-10T08:42:36.477Z,40.89
2023-05-10T08:43:36.490Z,41.44
2023-05-10T08:44:36.491Z,41.64
2023-05-10T08:45:36.492Z,40.05
2023-05-10T08:46:36.512Z,40.06
2023-05-10T08:47:36.521Z,40.10
2023-05-10T08:48:36.481Z,39.83
2023-05-10T08:49:36.540Z,39.90
2023-05-10T08:50:36.612Z,39.89
2023-05-10T08:51:36.638Z,40.03
2023-05-10T08:52:36.741Z,40.58
2023-05-10T08:53:36.766Z,40.50
2023-05-10T08:54:36.831Z,42.10
2023-05-10T08:55:36.851Z,41.86
2023-05-10T08:56:36.928Z,41.53
2023-05-10T08:57:37.001Z,41.59
2023-05-10T08:58:37.001Z,42.17
2023-05-10T08:59:37.080Z,42.30
2023-05-10T09:00:37.174Z,42.18
2023-05-10T09:01:37.150Z,42.07
2023-05-10T09:02:37.220Z,41.75
2023-05-10T09:03:37.268Z,41.71
2023-05-10T09:04:37.435Z,41.72
2023-05-10T09:05:37.562Z,41.74
2023-05-10T09:06:37.378Z,42.07
2023-05-10T09:07:37.368Z,41.89
2023-05-10T09:08:37.401Z,41.99
2023-05-10T09:09:37.425Z,41.94
2023-05-10T09:10:37.437Z,41.80
2023-05-10T09:11:37.495Z,41.78
2023-05-10T09:12:37.584Z,41.81
2023-05-10T09:13:37.628Z,41.64
2023-05-10T09:14:37.644Z,41.67
2023-05-10T09:15:37.678Z,41.48
2023-05-10T09:16:37.771Z,41.54
2023-05-10T09:17:37.753Z,41.48
2023-05-10T09:18:37.823Z,41.39
2023-05-10T09:19:37.925Z,41.48
2023-05-10T09:20:38.087Z,41.82
2023-05-10T09:21:37.997Z,41.71
2023-05-10T09:22:38.038Z,41.39
2023-05-10T09:23:38.045Z,41.63
2023-05-10T09:24:38.067Z,41.58
2023-05-10T09:25:38.560Z,41.50
2023-05-10T09:26:38.163Z,41.51
2023-05-10T09:27:38.130Z,41.48
2023-05-10T09:28:38.168Z,41.61
2023-05-10T09:29:38.178Z,41.45
2023-05-10T09:30:38.597Z,41.35
2023-05-10T09:31:38.228Z,41.40
2023-05-10T09:32:38.334Z,41.51
2023-05-10T09:33:38.375Z,41.52
2023-05-10T09:34:38.418Z,41.61
2023-05-10T09:35:38.592Z,41.39
2023-05-10T09:36:38.559Z,41.40
2023-05-10T09:37:38.577Z,41.40
2023-05-10T09:38:38.646Z,41.59
2023-05-10T09:39:38.661Z,41.68
2023-05-10T09:40:39.132Z,41.45
2023-05-10T09:41:38.792Z,41.44
2023-05-10T09:42:38.797Z,41.50
2023-05-10T09:43:38.786Z,41.59
2023-05-10T09:44:38.797Z,41.68
2023-05-10T09:45:39.370Z,41.63
2023-05-10T09:46:39.015Z,41.54
2023-05-10T09:47:38.860Z,41.64
2023-05-10T09:48:38.828Z,41.52
2023-05-10T09:49:38.851Z,41.55
2023-05-10T09:50:38.918Z,41.48
2023-05-10T09:51:39.012Z,41.41
2023-05-10T09:52:38.957Z,41.26
2023-05-10T09:53:39.031Z,41.00
2023-05-10T09:54:39.077Z,41.50
2023-05-10T09:55:39.046Z,41.08
2023-05-10T09:56:39.065Z,40.64
2023-05-10T09:57:39.099Z,40.29
2023-05-10T09:58:39.080Z,40.23
2023-05-10T09:59:39.109Z,40.09
2023-05-10T10:00:39.120Z,40.29
2023-05-10T10:01:39.194Z,39.81
2023-05-10T10:02:39.166Z,40.08
2023-05-10T10:03:39.194Z,39.70
2023-05-10T10:04:39.187Z,39.36
2023-05-10T10:05:39.198Z,39.11
2023-05-10T10:06:39.243Z,39.06
2023-05-10T10:07:39.280Z,38.99
2023-05-10T10:08:39.309Z,39.18
2023-05-10T10:09:39.352Z,38.99
2023-05-10T10:10:39.334Z,39.38
2023-05-10T10:11:39.575Z,39.52
2023-05-10T10:12:39.448Z,39.45
2023-05-10T10:13:39.472Z,39.45
2023-05-10T10:14:39.505Z,39.33
2023-05-10T10:15:39.600Z,39.28
2023-05-10T10:16:45.981Z,39.19
2023-05-10T10:17:40.599Z,39.12
2023-05-10T10:18:39.586Z,39.18
2023-05-10T10:19:39.582Z,38.87
2023-05-10T10:20:39.539Z,38.68
2023-05-10T10:21:39.604Z,38.99
2023-05-10T10:22:39.518Z,38.85
2023-05-10T10:23:39.532Z,38.73
2023-05-10T10:24:39.518Z,38.88
2023-05-10T10:25:39.529Z,38.67
2023-05-10T10:26:39.482Z,39.07
2023-05-10T10:27:39.580Z,38.73
2023-05-10T10:28:39.492Z,38.68
2023-05-10T10:29:39.486Z,38.64
2023-05-10T10:30:39.482Z,38.27
2023-05-10T10:31:39.522Z,38.37
2023-05-10T10:32:39.536Z,38.27
2023-05-10T10:33:39.503Z,38.15
2023-05-10T10:34:39.544Z,38.14
2023-05-10T10:35:39.545Z,38.52
2023-05-10T10:36:40.118Z,38.63
2023-05-10T10:37:39.602Z,38.55
2023-05-10T10:38:39.655Z,38.93
2023-05-10T10:39:39.659Z,38.76
2023-05-10T10:40:39.698Z,38.98
2023-05-10T10:41:40.114Z,38.91
2023-05-10T10:42:39.787Z,38.98
2023-05-10T10:43:39.791Z,38.70
2023-05-10T10:44:39.780Z,38.46
2023-05-10T10:45:41.973Z,38.20
2023-05-10T10:46:41.121Z,38.50
2023-05-10T10:47:40.186Z,38.14
2023-05-10T10:48:40.127Z,38.36
2023-05-10T10:49:40.151Z,38.34
2023-05-10T10:50:40.125Z,38.23
2023-05-10T10:51:40.144Z,38.05
2023-05-10T10:52:40.302Z,38.22
2023-05-10T10:53:40.257Z,37.66
2023-05-10T10:54:40.265Z,38.18
2023-05-10T10:55:40.349Z,37.87
2023-05-10T10:56:40.356Z,38.17
2023-05-10T10:57:40.355Z,38.14
2023-05-10T10:58:40.396Z,38.24
2023-05-10T10:59:40.442Z,38.54
2023-05-10T11:00:40.608Z,38.42
2023-05-10T11:01:40.546Z,38.37
2023-05-10T11:02:40.543Z,38.24
2023-05-10T11:03:40.536Z,38.23
2023-05-10T11:04:40.553Z,37.55
2023-05-10T11:05:40.507Z,37.55
2023-05-10T11:06:40.532Z,37.71
2023-05-10T11:07:40.608Z,37.61
2023-05-10T11:08:40.512Z,37.56
2023-05-10T11:09:40.528Z,38.42
2023-05-10T11:10:40.529Z,38.51
2023-05-10T11:11:40.505Z,38.29
2023-05-10T11:12:40.510Z,38.04
2023-05-10T11:13:40.582Z,37.57
2023-05-10T11:14:40.588Z,37.12
2023-05-10T11:15:40.497Z,36.98
2023-05-10T11:16:40.543Z,36.92
2023-05-10T11:17:40.611Z,36.85
2023-05-10T11:18:40.509Z,36.88
2023-05-10T11:19:40.521Z,36.59
2023-05-10T11:20:40.534Z,36.59
2023-05-10T11:21:40.504Z,36.68
2023-05-10T11:22:40.484Z,36.89
2023-05-10T11:23:40.513Z,36.88
2023-05-10T11:24:40.588Z,37.12
2023-05-10T11:25:40.512Z,37.15
2023-05-10T11:26:40.491Z,37.33
2023-05-10T11:27:40.611Z,37.95
2023-05-10T11:28:40.491Z,38.30
2023-05-10T11:29:40.612Z,38.37
2023-05-10T11:30:41.683Z,38.78
2023-05-10T11:31:40.561Z,38.77
2023-05-10T11:32:40.633Z,38.72
2023-05-10T11:33:40.536Z,38.64
2023-05-10T11:34:40.542Z,38.57
2023-05-10T11:35:43.154Z,38.55
2023-05-10T11:36:40.519Z,38.45
2023-05-10T11:37:41.136Z,38.40
2023-05-10T11:38:40.532Z,38.37
2023-05-10T11:39:40.526Z,38.25
2023-05-10T11:40:40.528Z,38.18
2023-05-10T11:41:42.336Z,38.14
2023-05-10T11:42:40.566Z,38.11
2023-05-10T11:43:40.547Z,38.14
2023-05-10T11:44:40.561Z,38.15
2023-05-10T11:45:40.565Z,38.09
2023-05-10T11:46:40.609Z,38.08
2023-05-10T11:47:42.669Z,38.03
2023-05-10T11:48:40.610Z,38.02
2023-05-10T11:49:40.652Z,37.96
2023-05-10T11:50:40.661Z,37.98
2023-05-10T11:51:40.737Z,37.97
2023-05-10T11:52:40.775Z,37.95
2023-05-10T11:53:40.858Z,37.92
2023-05-10T11:54:40.880Z,37.90
2023-05-10T11:55:40.979Z,37.86
2023-05-10T11:56:41.003Z,37.88
2023-05-10T11:57:41.106Z,37.80
2023-05-10T11:58:41.067Z,37.81
2023-05-10T11:59:43.092Z,37.82
2023-05-10T12:00:41.215Z,37.81
2023-05-10T12:01:41.276Z,37.77
2023-05-10T12:02:41.366Z,37.66
2023-05-10T12:03:41.514Z,37.69
2023-05-10T12:04:41.439Z,37.71
2023-05-10T12:05:42.893Z,37.75
2023-05-10T12:06:41.441Z,37.69
2023-05-10T12:07:41.500Z,37.71
2023-05-10T12:08:41.561Z,37.71
2023-05-10T12:09:44.013Z,37.73
2023-05-10T12:10:41.628Z,37.69
2023-05-10T12:11:43.545Z,37.67
2023-05-10T12:12:41.726Z,37.70
2023-05-10T12:13:41.795Z,37.69
2023-05-10T12:14:41.836Z,37.68
2023-05-10T12:15:41.896Z,37.63
2023-05-10T12:16:41.947Z,37.66
2023-05-10T12:17:43.435Z,37.64
2023-05-10T12:18:42.082Z,37.68
2023-05-10T12:19:42.090Z,37.73
2023-05-10T12:20:42.101Z,37.72
2023-05-10T12:21:42.101Z,37.74
2023-05-10T12:22:42.125Z,37.71
2023-05-10T12:23:42.115Z,37.73
2023-05-10T12:24:42.136Z,37.72
2023-05-10T12:25:42.136Z,37.70
2023-05-10T12:26:42.236Z,37.71
2023-05-10T12:27:42.190Z,37.72
2023-05-10T12:28:42.199Z,37.70
2023-05-10T12:29:42.791Z,37.73
2023-05-10T12:30:42.229Z,37.74
2023-05-10T12:31:42.282Z,37.73
2023-05-10T12:32:42.362Z,37.70
2023-05-10T12:33:42.269Z,37.71
2023-05-10T12:34:42.296Z,37.71
2023-05-10T12:35:43.069Z,37.69
2023-05-10T12:36:42.321Z,37.72
2023-05-10T12:37:42.376Z,37.70
2023-05-10T12:38:42.415Z,37.70
2023-05-10T12:39:42.537Z,37.69
2023-05-10T12:40:42.647Z,37.69
2023-05-10T12:41:43.641Z,37.69
2023-05-10T12:42:42.690Z,37.71
2023-05-10T12:43:42.703Z,37.70
2023-05-10T12:44:42.774Z,37.68
2023-05-10T12:45:42.844Z,37.68
2023-05-10T12:46:42.869Z,37.68
2023-05-10T12:47:44.171Z,37.70
2023-05-10T12:48:42.979Z,37.69
2023-05-10T12:49:43.016Z,37.69
2023-05-10T12:50:42.988Z,37.69
2023-05-10T12:51:43.030Z,37.71
2023-05-10T12:52:43.061Z,37.86